Time;durP1;ratioP1;P1;durP2;ratioP2;P2;SDS_P1;SDS_P2;PMS_P1;PMS_P2;Temp;Humidity;BMP_temperature;BMP_pressure;BME280_temperature;BME280_humidity;BME280_pressure;Samples;Min_cycle;Max_cycle;Signal;HPM_P1;HPM_P2
2021/08/13 00:01:18;;;;;;;6.72;4.90;;;20.60;68.00;;;;;;2609468;54;20038;-76
2021/08/13 00:03:44;;;;;;;6.40;5.18;;;20.50;68.00;;;;;;2609101;54;20045;-77
2021/08/13 00:06:09;;;;;;;7.13;4.60;;;20.50;68.90;;;;;;2608494;46;20057;-76
2021/08/13 00:08:35;;;;;;;5.55;4.25;;;20.50;69.10;;;;;;2609206;54;20045;-76
2021/08/13 00:11:01;;;;;;;7.50;4.70;;;20.40;69.10;;;;;;2609119;54;20081;-76
2021/08/13 00:13:26;;;;;;;7.88;4.53;;;20.40;70.50;;;;;;2610032;54;20041;-77
2021/08/13 00:15:52;;;;;;;7.95;4.72;;;20.30;70.80;;;;;;2609850;54;20049;-76
2021/08/13 00:18:18;;;;;;;9.45;5.30;;;20.30;70.50;;;;;;2609936;54;20073;-76
2021/08/13 00:20:44;;;;;;;6.05;5.00;;;20.30;70.60;;;;;;2610031;39;20420;-76
2021/08/13 00:23:09;;;;;;;7.38;5.25;;;20.30;71.30;;;;;;2609451;54;20157;-76
2021/08/13 00:25:38;;;;;;;7.32;4.93;;;20.20;70.80;;;;;;2610021;54;20054;-76
2021/08/13 00:28:04;;;;;;;6.30;4.95;;;20.20;71.00;;;;;;2609235;54;20076;-76
2021/08/13 00:30:30;;;;;;;7.05;5.47;;;20.20;71.20;;;;;;2609710;54;20030;-76
2021/08/13 00:32:55;;;;;;;8.18;5.07;;;20.20;71.80;;;;;;2609482;49;20157;-76
2021/08/13 00:35:21;;;;;;;6.22;4.63;;;20.20;71.10;;;;;;2610138;54;20038;-76
2021/08/13 00:37:47;;;;;;;6.65;4.72;;;20.20;70.80;;;;;;2609659;54;20078;-77
2021/08/13 00:40:14;;;;;;;5.70;4.85;;;20.20;70.50;;;;;;2609194;39;20717;-76
2021/08/13 00:42:42;;;;;;;8.43;5.25;;;20.20;70.40;;;;;;2609852;47;20071;-76
2021/08/13 00:45:08;;;;;;;7.97;4.93;;;20.20;71.10;;;;;;2609598;54;20027;-76
2021/08/13 00:47:42;;;;;;;7.57;5.10;;;20.10;71.60;;;;;;2609048;54;20038;-76
2021/08/13 00:50:15;;;;;;;5.68;4.90;;;20.10;72.10;;;;;;2609312;47;20105;-76
2021/08/13 00:52:46;;;;;;;5.93;5.10;;;20.10;72.00;;;;;;2609341;54;20053;-76
2021/08/13 00:55:16;;;;;;;6.10;4.78;;;20.00;71.40;;;;;;2610164;54;20038;-76
2021/08/13 00:57:57;;;;;;;7.93;5.35;;;20.10;71.80;;;;;;2608682;54;20042;-76
2021/08/13 01:00:43;;;;;;;;;;;20.00;72.50;;;;;;2609280;47;20121;-76
2021/08/13 01:03:09;;;;;;;5.85;5.25;;;20.00;73.00;;;;;;2609317;47;20517;-77
2021/08/13 01:05:38;;;;;;;7.72;5.40;;;20.00;73.00;;;;;;2608542;54;20077;-76
2021/08/13 01:08:04;;;;;;;5.72;4.90;;;20.00;73.60;;;;;;2609234;54;20027;-76
2021/08/13 01:10:33;;;;;;;6.25;5.50;;;20.00;73.60;;;;;;2608605;54;20872;-76
2021/08/13 01:13:12;;;;;;;7.80;5.97;;;20.00;73.30;;;;;;2609257;54;20034;-76
2021/08/13 01:15:43;;;;;;;7.68;5.90;;;20.00;72.80;;;;;;2608950;53;20550;-76
2021/08/13 01:18:19;;;;;;;7.47;5.43;;;20.00;72.50;;;;;;2609290;47;20038;-75
2021/08/13 01:21:12;;;;;;;6.05;5.45;;;20.00;72.60;;;;;;2609012;54;20070;-76
2021/08/13 01:24:00;;;;;;;7.97;5.57;;;20.00;73.30;;;;;;2609060;47;20030;-76
2021/08/13 01:26:29;;;;;;;7.18;5.47;;;20.00;71.70;;;;;;2609182;54;20129;-76
2021/08/13 01:29:02;;;;;;;6.88;5.25;;;20.00;72.80;;;;;;2607985;47;20031;-76
2021/08/13 01:31:37;;;;;;;10.05;5.65;;;20.00;73.40;;;;;;2609550;31;20558;-76
2021/08/13 01:34:06;;;;;;;6.93;4.85;;;20.00;72.10;;;;;;2608321;54;20103;-76
2021/08/13 01:36:34;;;;;;;6.60;5.55;;;20.00;71.60;;;;;;2609103;39;20872;-76
2021/08/13 01:39:05;;;;;;;7.38;5.22;;;20.00;72.30;;;;;;2609303;54;20048;-76
2021/08/13 01:41:35;;;;;;;5.72;5.18;;;20.00;72.00;;;;;;2608119;47;20042;-75
2021/08/13 01:44:06;;;;;;;5.35;4.85;;;20.00;71.20;;;;;;2608655;47;20875;-76
2021/08/13 01:46:33;;;;;;;7.30;5.13;;;20.00;71.90;;;;;;2608376;47;20038;-76
2021/08/13 01:49:01;;;;;;;6.75;5.30;;;20.00;72.20;;;;;;2608525;54;20574;-76
2021/08/13 01:51:31;;;;;;;7.15;5.13;;;19.90;72.80;;;;;;2607628;54;20042;-76
2021/08/13 01:54:00;;;;;;;5.20;4.70;;;19.90;72.60;;;;;;2608720;47;20034;-77
2021/08/13 01:56:27;;;;;;;7.20;5.15;;;19.90;72.70;;;;;;2609218;39;20761;-76
2021/08/13 01:58:54;;;;;;;6.35;5.40;;;19.80;73.10;;;;;;2607851;54;20037;-76
2021/08/13 02:01:20;;;;;;;8.02;5.40;;;19.80;73.50;;;;;;2608362;54;20030;-77
2021/08/13 02:03:48;;;;;;;6.30;5.57;;;19.80;73.60;;;;;;2607819;54;20153;-77
2021/08/13 02:06:15;;;;;;;6.13;5.53;;;19.70;73.70;;;;;;2608377;50;20030;-76
2021/08/13 02:08:43;;;;;;;6.25;5.22;;;19.70;73.90;;;;;;2608489;47;20041;-76
2021/08/13 02:11:18;;;;;;;7.65;5.30;;;19.70;74.20;;;;;;2607707;47;20030;-76
2021/08/13 02:13:45;;;;;;;6.05;5.45;;;19.60;74.80;;;;;;2608254;54;20038;-76
2021/08/13 02:16:16;;;;;;;7.68;5.65;;;19.60;74.90;;;;;;2607818;54;20049;-76
2021/08/13 02:18:49;;;;;;;6.65;5.78;;;19.50;75.10;;;;;;2608624;54;20050;-74
2021/08/13 02:21:19;;;;;;;8.57;5.20;;;19.50;74.80;;;;;;2607893;54;20810;-76
2021/08/13 02:23:45;;;;;;;7.30;6.10;;;19.50;74.80;;;;;;2609664;54;20038;-77
2021/08/13 02:26:12;;;;;;;7.95;5.88;;;19.40;74.60;;;;;;2609400;54;20161;-76
2021/08/13 02:28:44;;;;;;;8.07;5.65;;;19.40;74.90;;;;;;2608496;48;20130;-76
2021/08/13 02:31:11;;;;;;;6.15;5.25;;;19.40;75.30;;;;;;2609563;54;20081;-76
2021/08/13 02:33:40;;;;;;;6.35;5.72;;;19.40;75.60;;;;;;2609073;47;20026;-76
2021/08/13 02:36:12;;;;;;;6.78;5.93;;;19.40;75.80;;;;;;2609159;54;20030;-76
2021/08/13 02:39:00;;;;;;;7.05;5.85;;;19.40;75.70;;;;;;2609359;54;20031;-76
2021/08/13 02:41:30;;;;;;;6.60;5.90;;;19.40;75.70;;;;;;2608679;47;20038;-77
2021/08/13 02:43:59;;;;;;;7.07;5.90;;;19.40;76.20;;;;;;2609763;47;20038;-76
2021/08/13 02:46:31;;;;;;;8.25;6.22;;;19.40;76.50;;;;;;2609276;31;20687;-76
2021/08/13 02:49:00;;;;;;;7.03;5.65;;;19.40;76.80;;;;;;2608734;47;20046;-76
2021/08/13 02:51:30;;;;;;;12.27;6.07;;;19.40;76.90;;;;;;2608268;54;20067;-76
2021/08/13 02:53:57;;;;;;;6.97;6.13;;;19.40;76.80;;;;;;2608656;54;20074;-77
2021/08/13 02:56:30;;;;;;;7.53;5.70;;;19.50;76.30;;;;;;2609088;54;20070;-76
2021/08/13 02:59:02;;;;;;;6.60;5.90;;;19.50;75.30;;;;;;2607292;54;20034;-76
2021/08/13 03:01:32;;;;;;;8.93;6.30;;;19.50;75.80;;;;;;2608764;51;20042;-76
2021/08/13 03:04:00;;;;;;;6.40;5.72;;;19.50;75.40;;;;;;2607945;54;20034;-76
2021/08/13 03:06:32;;;;;;;12.55;7.03;;;19.50;75.40;;;;;;2609110;47;20061;-76
2021/08/13 03:09:00;;;;;;;7.47;5.85;;;19.50;75.90;;;;;;2609046;39;20457;-76
2021/08/13 03:11:27;;;;;;;7.47;5.35;;;19.50;74.70;;;;;;2608734;54;20037;-75
2021/08/13 03:13:57;;;;;;;7.22;6.10;;;19.60;75.20;;;;;;2608836;54;20022;-76
2021/08/13 03:16:27;;;;;;;7.53;5.78;;;19.60;75.40;;;;;;2608555;54;20049;-76
2021/08/13 03:18:55;;;;;;;7.68;6.00;;;19.60;75.20;;;;;;2609467;39;20885;-76
2021/08/13 03:21:22;;;;;;;6.93;5.90;;;19.60;75.80;;;;;;2608811;54;20082;-76
2021/08/13 03:23:49;;;;;;;7.35;5.40;;;19.60;75.40;;;;;;2610845;54;20038;-76
2021/08/13 03:26:15;;;;;;;6.00;5.47;;;19.70;74.50;;;;;;2609730;54;20030;-76
2021/08/13 03:28:42;;;;;;;6.88;5.50;;;19.70;75.10;;;;;;2609319;54;20027;-76
2021/08/13 03:31:08;;;;;;;7.10;5.75;;;19.60;75.00;;;;;;2609795;51;20031;-76
2021/08/13 03:33:37;;;;;;;6.68;6.00;;;19.70;74.90;;;;;;2609135;54;20046;-76
2021/08/13 03:36:05;;;;;;;7.97;6.15;;;19.70;74.60;;;;;;2610265;39;20493;-76
2021/08/13 03:38:33;;;;;;;9.43;5.72;;;19.70;74.40;;;;;;2609719;54;20089;-76
2021/08/13 03:41:03;;;;;;;6.63;5.93;;;19.70;73.90;;;;;;2607857;54;20685;-76
2021/08/13 03:43:29;;;;;;;6.50;5.90;;;19.70;74.60;;;;;;2609294;54;20038;-76
2021/08/13 03:45:55;;;;;;;7.30;5.82;;;19.80;74.60;;;;;;2609212;47;20080;-76
2021/08/13 03:48:21;;;;;;;7.90;5.70;;;19.80;74.40;;;;;;2609604;54;20563;-76
2021/08/13 03:50:47;;;;;;;6.90;5.75;;;19.80;74.20;;;;;;2609588;54;20042;-76
2021/08/13 03:53:13;;;;;;;6.43;5.82;;;19.80;74.30;;;;;;2609444;47;20027;-76
2021/08/13 03:55:42;;;;;;;6.70;6.05;;;19.80;74.10;;;;;;2610023;39;20435;-76
2021/08/13 03:58:10;;;;;;;6.60;5.90;;;19.80;74.10;;;;;;2610272;54;20031;-76
2021/08/13 04:00:36;;;;;;;8.55;5.88;;;19.80;74.30;;;;;;2609473;47;20094;-76
2021/08/13 04:03:03;;;;;;;7.18;6.10;;;19.80;74.10;;;;;;2610165;39;20420;-76
2021/08/13 11:42:07;;;;;;;8.20;5.05;;;28.80;52.70;;;;;;2608941;54;20047;-73
2021/08/13 11:44:35;;;;;;;8.77;5.18;;;28.80;52.20;;;;;;2605170;54;20034;-74
2021/08/13 11:47:03;;;;;;;11.77;5.20;;;28.90;51.60;;;;;;2609454;54;20026;-73
2021/08/13 11:49:30;;;;;;;5.85;5.15;;;28.90;54.00;;;;;;2609591;54;20670;-74
2021/08/13 11:51:56;;;;;;;6.63;5.28;;;28.90;53.30;;;;;;2610031;54;20037;-72
2021/08/13 11:54:27;;;;;;;7.97;5.55;;;28.90;53.30;;;;;;2610058;39;20461;-72
2021/08/13 11:56:53;;;;;;;8.20;5.60;;;28.90;52.70;;;;;;2610206;54;20034;-73
2021/08/13 11:59:19;;;;;;;7.32;5.30;;;29.00;53.10;;;;;;2609709;54;20034;-74
2021/08/13 12:01:47;;;;;;;9.50;5.22;;;29.10;54.30;;;;;;2610276;54;20145;-74
2021/08/13 12:04:23;;;;;;;6.25;5.40;;;29.20;51.60;;;;;;2609861;54;20035;-73
2021/08/13 12:07:08;;;;;;;6.78;5.00;;;29.30;51.60;;;;;;2610593;54;20064;-74
2021/08/13 12:09:41;;;;;;;6.68;4.82;;;29.40;52.50;;;;;;2609698;54;20038;-74
2021/08/13 12:12:14;;;;;;;7.15;5.28;;;29.50;52.20;;;;;;2610190;54;20038;-73
2021/08/13 12:14:55;;;;;;;7.63;5.50;;;29.50;52.10;;;;;;2609129;54;20035;-74
2021/08/13 12:17:20;;;;;;;6.95;5.10;;;29.60;52.90;;;;;;2608924;54;20061;-71
2021/08/13 12:20:08;;;;;;;7.05;5.57;;;29.60;52.60;;;;;;2609621;39;20478;-71
2021/08/13 12:22:35;;;;;;;6.40;5.30;;;29.50;51.70;;;;;;2609025;54;20073;-73
2021/08/13 12:25:07;;;;;;;6.25;5.20;;;29.50;52.00;;;;;;2609564;39;20407;-71
2021/08/13 12:27:36;;;;;;;7.78;5.13;;;29.50;52.10;;;;;;2609170;54;20034;-72
2021/08/13 12:30:02;;;;;;;5.85;5.22;;;29.60;51.70;;;;;;2609278;54;20038;-71
2021/08/13 12:32:37;;;;;;;7.80;4.80;;;29.60;52.70;;;;;;2609683;47;20069;-73
2021/08/13 12:35:06;;;;;;;5.90;5.03;;;29.60;50.70;;;;;;2609492;47;20687;-72
2021/08/13 12:37:32;;;;;;;5.72;4.90;;;29.70;52.10;;;;;;2609093;54;20034;-72
2021/08/13 12:40:00;;;;;;;5.95;4.97;;;29.60;53.00;;;;;;2608919;54;20596;-71
2021/08/13 12:42:26;;;;;;;5.97;4.95;;;29.60;52.60;;;;;;2609707;47;20066;-71
2021/08/13 12:44:52;;;;;;;6.65;5.55;;;29.70;52.10;;;;;;2610413;54;21074;-72
2021/08/13 12:47:19;;;;;;;5.55;4.97;;;29.70;52.90;;;;;;2609723;47;20034;-70
2021/08/13 12:49:45;;;;;;;6.18;5.07;;;29.70;51.70;;;;;;2609687;51;20035;-71
2021/08/13 12:52:22;;;;;;;6.75;5.50;;;29.60;51.70;;;;;;2609500;54;20052;-70
2021/08/13 12:54:50;;;;;;;7.30;5.72;;;29.60;52.00;;;;;;2609359;54;20066;-71
2021/08/13 12:57:19;;;;;;;10.30;5.80;;;29.60;51.80;;;;;;2609463;54;20022;-71
2021/08/13 13:00:01;;;;;;;7.75;5.43;;;29.60;51.80;;;;;;2609624;54;20026;-71
2021/08/13 13:02:28;;;;;;;8.15;5.70;;;29.60;50.70;;;;;;2610400;54;20080;-71
2021/08/13 13:05:01;;;;;;;6.88;5.88;;;29.70;50.80;;;;;;2609443;54;20034;-71
2021/08/13 13:07:30;;;;;;;6.35;4.90;;;29.70;50.80;;;;;;2610127;54;20077;-71
2021/08/13 13:09:57;;;;;;;7.22;5.68;;;29.70;50.80;;;;;;2607247;47;20895;-71
2021/08/13 13:12:29;;;;;;;8.02;5.45;;;29.60;50.80;;;;;;2609045;47;20641;-72
2021/08/13 13:15:02;;;;;;;7.18;4.85;;;29.60;51.70;;;;;;2608809;54;20038;-72
2021/08/13 13:17:29;;;;;;;7.85;5.00;;;29.60;51.80;;;;;;2609235;39;20659;-71
2021/08/13 13:20:14;;;;;;;7.60;5.00;;;29.60;51.30;;;;;;2609088;47;20045;-71
2021/08/13 13:22:44;;;;;;;7.53;5.18;;;29.60;49.80;;;;;;2609072;54;20037;-71
2021/08/13 13:25:15;;;;;;;6.88;5.13;;;29.70;50.30;;;;;;2609706;54;20042;-71
2021/08/13 13:27:58;;;;;;;9.00;4.82;;;29.60;51.50;;;;;;2609439;54;21066;-71
2021/08/13 13:30:47;;;;;;;9.43;4.40;;;29.70;50.70;;;;;;2610774;39;20533;-71
2021/08/13 13:33:23;;;;;;;8.02;5.05;;;29.70;50.20;;;;;;2609381;54;20030;-71
2021/08/13 13:36:04;;;;;;;8.13;4.82;;;29.80;49.70;;;;;;2610325;54;20581;-70
2021/08/13 13:38:37;;;;;;;5.65;4.53;;;29.80;50.00;;;;;;2608891;54;20157;-72
2021/08/13 13:41:03;;;;;;;6.18;4.20;;;29.90;50.10;;;;;;2608918;54;20042;-72
2021/08/13 13:43:29;;;;;;;5.15;4.63;;;29.90;48.20;;;;;;2608789;54;20096;-73
2021/08/13 13:45:56;;;;;;;5.75;4.03;;;29.80;48.90;;;;;;2609093;54;20034;-72
2021/08/13 13:48:23;;;;;;;7.57;4.72;;;29.80;47.40;;;;;;2609990;54;20027;-74
2021/08/13 13:50:50;;;;;;;6.18;3.90;;;29.90;46.60;;;;;;2609971;54;20049;-74
2021/08/13 13:53:17;;;;;;;5.03;4.22;;;29.80;47.60;;;;;;2610041;54;20117;-73
2021/08/13 13:55:42;;;;;;;6.07;4.25;;;29.70;48.00;;;;;;2609811;54;20027;-73
2021/08/13 13:58:08;;;;;;;7.18;4.40;;;29.60;48.20;;;;;;2609935;54;20133;-73
2021/08/13 14:00:35;;;;;;;6.05;4.30;;;29.50;48.70;;;;;;2610383;54;20034;-74
2021/08/13 14:03:01;;;;;;;6.53;4.13;;;29.50;49.30;;;;;;2609754;47;20043;-74
2021/08/13 14:05:30;;;;;;;6.18;4.53;;;29.50;47.90;;;;;;2609493;54;20037;-73
2021/08/13 14:07:56;;;;;;;5.70;4.50;;;29.40;48.70;;;;;;2609547;54;20041;-73
2021/08/13 14:10:24;;;;;;;5.68;4.22;;;29.40;48.60;;;;;;2609514;54;20046;-74
2021/08/13 14:12:51;;;;;;;5.38;4.55;;;29.40;49.40;;;;;;2609628;54;20034;-74
2021/08/13 14:15:19;;;;;;;5.32;4.40;;;29.40;50.00;;;;;;2609588;47;20051;-74
2021/08/13 14:17:47;;;;;;;5.40;4.35;;;29.30;49.90;;;;;;2609693;54;20027;-73
2021/08/13 14:20:14;;;;;;;4.95;4.45;;;29.30;50.00;;;;;;2609701;47;20034;-74
2021/08/13 14:22:41;;;;;;;4.95;4.15;;;29.30;49.70;;;;;;2609900;54;20156;-73
2021/08/13 14:25:09;;;;;;;5.80;4.32;;;29.30;49.90;;;;;;2609783;54;20145;-74
2021/08/13 14:27:37;;;;;;;5.25;4.75;;;29.40;49.40;;;;;;2609501;47;20149;-74
2021/08/13 14:30:06;;;;;;;6.13;4.40;;;29.40;50.80;;;;;;2609501;47;20030;-74
2021/08/13 14:32:32;;;;;;;5.40;4.35;;;29.40;49.50;;;;;;2609618;54;20035;-74
2021/08/13 14:34:58;;;;;;;6.47;4.68;;;29.40;49.60;;;;;;2609505;47;20584;-74
2021/08/13 14:37:24;;;;;;;6.03;4.63;;;29.40;49.10;;;;;;2609556;54;20030;-74
2021/08/13 14:39:50;;;;;;;6.97;4.75;;;29.40;48.10;;;;;;2609583;54;20030;-74
2021/08/13 14:42:15;;;;;;;7.97;5.07;;;29.40;48.80;;;;;;2609664;47;20026;-74
2021/08/13 14:44:41;;;;;;;5.78;4.53;;;29.30;48.90;;;;;;2609654;47;20147;-74
2021/08/13 14:47:07;;;;;;;7.57;4.82;;;29.30;48.90;;;;;;2609611;47;20042;-74
2021/08/13 14:49:33;;;;;;;5.35;4.85;;;29.20;50.60;;;;;;2610084;54;20030;-74
2021/08/13 14:51:58;;;;;;;5.53;4.90;;;29.10;50.40;;;;;;2609856;54;20952;-74
2021/08/13 14:54:25;;;;;;;5.28;4.38;;;29.00;51.70;;;;;;2608571;54;20126;-74
2021/08/13 14:56:52;;;;;;;8.65;4.93;;;29.00;54.00;;;;;;2608936;54;20027;-75
2021/08/13 14:59:18;;;;;;;5.03;4.53;;;28.90;56.30;;;;;;2609837;47;20061;-74
2021/08/13 15:01:44;;;;;;;5.47;4.85;;;28.90;56.00;;;;;;2609718;54;20042;-74
2021/08/13 15:04:10;;;;;;;5.25;4.70;;;28.80;54.70;;;;;;2609286;54;20026;-74
2021/08/13 15:06:39;;;;;;;5.95;5.22;;;28.90;53.50;;;;;;2609270;47;20039;-74
2021/08/13 15:09:05;;;;;;;6.65;5.15;;;28.90;54.60;;;;;;2609338;54;20030;-74
2021/08/13 15:11:32;;;;;;;6.15;4.57;;;29.00;53.90;;;;;;2609886;54;20061;-74
2021/08/13 15:13:58;;;;;;;5.57;4.63;;;29.00;52.70;;;;;;2610817;54;20062;-74
2021/08/13 15:16:24;;;;;;;5.50;4.90;;;28.90;52.80;;;;;;2610398;54;20122;-74
2021/08/13 15:18:50;;;;;;;5.28;4.53;;;28.80;55.10;;;;;;2609824;54;20621;-74
2021/08/13 15:21:16;;;;;;;5.38;4.53;;;28.70;56.10;;;;;;2610497;54;20034;-74
2021/08/13 15:23:42;;;;;;;5.70;5.10;;;28.70;57.40;;;;;;2610404;39;20461;-74
2021/08/13 15:26:08;;;;;;;7.63;4.40;;;28.60;57.60;;;;;;2610654;54;20034;-74
2021/08/13 15:28:33;;;;;;;5.90;5.25;;;28.60;59.10;;;;;;2610012;54;20038;-74
2021/08/13 15:30:59;;;;;;;6.63;5.57;;;28.60;56.30;;;;;;2610399;54;20183;-73
2021/08/13 15:33:25;;;;;;;6.80;5.32;;;28.60;59.00;;;;;;2610337;54;20058;-76
2021/08/13 15:35:51;;;;;;;6.32;4.57;;;28.60;56.40;;;;;;2610087;54;20665;-72
2021/08/13 15:38:16;;;;;;;6.70;4.97;;;28.70;51.70;;;;;;2608884;54;20038;-72
2021/08/13 15:40:42;;;;;;;5.65;4.72;;;28.70;53.00;;;;;;2610003;54;20034;-72
2021/08/13 15:43:08;;;;;;;10.43;5.07;;;28.70;54.60;;;;;;2610481;54;20034;-71
2021/08/13 15:45:34;;;;;;;7.55;5.50;;;28.70;56.40;;;;;;2610777;54;20037;-71
2021/08/13 15:48:00;;;;;;;7.90;5.30;;;28.60;57.70;;;;;;2610835;54;20030;-70
2021/08/13 15:50:26;;;;;;;7.90;5.03;;;28.60;56.10;;;;;;2609721;54;20069;-71
2021/08/13 15:52:53;;;;;;;6.57;5.22;;;28.60;58.60;;;;;;2610942;54;20042;-71
2021/08/13 15:55:20;;;;;;;7.10;4.53;;;28.50;59.30;;;;;;2611162;39;20443;-71
2021/08/13 15:57:46;;;;;;;6.22;4.65;;;28.50;59.90;;;;;;2610635;54;20604;-71
2021/08/13 16:00:13;;;;;;;4.95;4.38;;;28.40;60.10;;;;;;2610414;54;20038;-71
2021/08/13 16:02:40;;;;;;;5.72;5.18;;;28.20;58.30;;;;;;2610633;54;20090;-71
2021/08/13 16:05:06;;;;;;;5.43;4.88;;;28.20;58.40;;;;;;2610670;54;20035;-71
2021/08/13 16:07:32;;;;;;;6.80;4.60;;;28.10;58.60;;;;;;2610113;39;20889;-73
2021/08/13 16:09:58;;;;;;;7.25;4.97;;;28.00;59.10;;;;;;2609732;47;20034;-72
2021/08/13 16:12:23;;;;;;;6.65;4.55;;;28.00;60.90;;;;;;2610259;39;20859;-77
2021/08/13 16:14:49;;;;;;;5.85;5.10;;;27.90;61.20;;;;;;2610915;54;20034;-73
2021/08/13 16:17:15;;;;;;;8.25;4.85;;;27.90;61.90;;;;;;2610332;54;20149;-72
2021/08/13 16:19:41;;;;;;;8.77;5.28;;;27.90;62.50;;;;;;2610142;54;20570;-74
2021/08/13 16:22:07;;;;;;;6.38;5.10;;;27.80;63.40;;;;;;2610842;54;20031;-73
2021/08/13 16:24:33;;;;;;;7.13;5.25;;;27.70;62.20;;;;;;2610794;54;20031;-79
2021/08/13 16:26:59;;;;;;;6.10;5.18;;;27.70;63.20;;;;;;2609833;54;20689;-72
2021/08/13 16:29:24;;;;;;;7.25;5.45;;;27.70;63.70;;;;;;2609663;54;20034;-77
2021/08/13 16:31:50;;;;;;;6.43;4.60;;;27.60;62.70;;;;;;2610714;54;20038;-73
2021/08/13 16:34:16;;;;;;;8.05;5.35;;;27.50;62.60;;;;;;2610337;54;20121;-73
2021/08/13 16:36:42;;;;;;;9.68;5.43;;;27.50;64.80;;;;;;2610915;54;20117;-74
2021/08/13 16:39:08;;;;;;;6.95;4.70;;;27.40;65.30;;;;;;2609773;47;20149;-74
2021/08/13 16:41:34;;;;;;;7.60;4.82;;;27.40;64.70;;;;;;2610850;39;20458;-74
2021/08/13 16:44:00;;;;;;;6.05;4.82;;;27.40;65.40;;;;;;2611040;54;20038;-74
2021/08/13 16:46:27;;;;;;;7.03;5.40;;;27.30;63.80;;;;;;2610653;39;20511;-74
2021/08/13 16:48:52;;;;;;;7.07;4.78;;;27.30;63.90;;;;;;2610277;54;20031;-74
2021/08/13 16:51:18;;;;;;;7.63;5.25;;;27.20;63.50;;;;;;2610286;54;20042;-74
2021/08/13 16:53:45;;;;;;;7.97;5.05;;;27.20;64.00;;;;;;2610921;54;20091;-73
2021/08/13 16:56:11;;;;;;;5.07;4.43;;;27.10;65.00;;;;;;2610219;54;20034;-73
2021/08/13 16:58:37;;;;;;;6.35;5.20;;;27.00;65.50;;;;;;2610623;54;20038;-74
2021/08/13 17:01:03;;;;;;;5.85;5.10;;;27.00;65.80;;;;;;2611162;39;20437;-73
2021/08/13 17:03:29;;;;;;;6.32;5.40;;;27.00;67.90;;;;;;2610550;54;20035;-74
2021/08/13 17:05:54;;;;;;;6.38;5.30;;;27.00;67.90;;;;;;2610966;54;20035;-74
2021/08/13 17:08:20;;;;;;;7.93;4.80;;;26.90;65.60;;;;;;2610506;54;20042;-74
2021/08/13 17:10:47;;;;;;;6.25;4.72;;;26.90;63.50;;;;;;2610700;54;20030;-74
2021/08/13 17:13:13;;;;;;;6.05;4.80;;;26.90;63.50;;;;;;2610557;54;20042;-74
2021/08/13 17:15:39;;;;;;;7.60;5.10;;;26.90;64.20;;;;;;2610525;54;20040;-74
2021/08/13 17:18:05;;;;;;;7.63;5.93;;;26.80;64.70;;;;;;2609795;54;20030;-72
2021/08/13 17:20:31;;;;;;;6.03;5.20;;;26.80;65.00;;;;;;2610292;54;20026;-71
2021/08/13 17:22:57;;;;;;;6.18;5.35;;;26.80;62.70;;;;;;2610533;54;20137;-75
2021/08/13 17:25:22;;;;;;;7.25;5.50;;;26.70;62.70;;;;;;2610312;54;20035;-74
2021/08/13 17:27:48;;;;;;;7.07;5.32;;;26.60;63.30;;;;;;2609893;54;20031;-74
2021/08/13 17:30:14;;;;;;;6.82;5.10;;;26.60;64.00;;;;;;2609917;54;20645;-74
2021/08/13 17:32:41;;;;;;;6.95;5.53;;;26.60;64.60;;;;;;2610378;54;20035;-74
2021/08/13 17:35:08;;;;;;;6.90;5.50;;;26.60;65.90;;;;;;2610288;54;20037;-74
2021/08/13 17:37:34;;;;;;;6.90;6.05;;;26.50;65.20;;;;;;2608895;47;20061;-76
2021/08/13 17:40:00;;;;;;;8.38;6.20;;;26.50;66.00;;;;;;2610443;39;20802;-76
2021/08/13 17:42:26;;;;;;;8.68;6.47;;;26.50;65.50;;;;;;2610573;54;20122;-74
2021/08/13 17:44:52;;;;;;;6.70;5.75;;;26.60;64.70;;;;;;2609266;47;20042;-69
2021/08/13 17:47:18;;;;;;;8.70;6.05;;;26.50;65.70;;;;;;2610215;54;20062;-73
2021/08/13 17:49:44;;;;;;;7.25;5.65;;;26.50;65.40;;;;;;2610702;54;20107;-72
2021/08/13 17:52:10;;;;;;;8.30;5.80;;;26.50;65.80;;;;;;2609937;54;20042;-72
2021/08/13 17:54:38;;;;;;;6.68;5.72;;;26.40;63.70;;;;;;2609861;54;20035;-74
2021/08/13 17:57:03;;;;;;;8.35;5.75;;;26.40;63.10;;;;;;2610450;54;20038;-77
2021/08/13 17:59:29;;;;;;;7.47;5.50;;;26.40;64.90;;;;;;2609967;54;20026;-78
2021/08/13 18:01:55;;;;;;;7.32;5.28;;;26.30;65.60;;;;;;2610432;54;20149;-78
2021/08/13 18:04:25;;;;;;;7.53;5.90;;;26.30;65.30;;;;;;2610555;54;20114;-73
2021/08/13 18:06:55;;;;;;;6.22;5.53;;;26.20;63.50;;;;;;2610668;54;20037;-79
2021/08/13 18:09:21;;;;;;;6.55;5.47;;;26.10;64.10;;;;;;2610023;54;20577;-79
2021/08/13 18:11:49;;;;;;;7.95;5.80;;;26.10;64.20;;;;;;2610594;54;20892;-79
2021/08/13 18:14:18;;;;;;;7.10;5.88;;;26.00;62.30;;;;;;2611093;54;20058;-79
2021/08/13 18:16:44;;;;;;;7.80;5.72;;;25.90;64.60;;;;;;2610776;54;20157;-78
2021/08/13 18:19:10;;;;;;;7.63;6.00;;;25.90;64.50;;;;;;2608607;54;20606;-75
2021/08/13 18:21:37;;;;;;;8.50;6.07;;;25.90;65.10;;;;;;2610155;54;20041;-75
2021/08/13 18:24:05;;;;;;;7.60;5.95;;;25.90;64.00;;;;;;2610345;54;20145;-76
2021/08/13 18:26:41;;;;;;;10.07;5.88;;;25.90;63.10;;;;;;2610195;39;20505;-76
2021/08/13 18:29:07;;;;;;;6.65;5.90;;;25.80;62.50;;;;;;2610297;54;20031;-75
2021/08/13 18:31:33;;;;;;;6.90;5.43;;;25.80;63.70;;;;;;2609560;54;20030;-76
2021/08/13 18:33:59;;;;;;;7.15;5.63;;;25.90;65.10;;;;;;2610302;54;20593;-76
2021/08/13 18:36:26;;;;;;;7.18;5.88;;;25.90;65.00;;;;;;2610266;54;20034;-76
2021/08/13 18:38:53;;;;;;;11.23;6.07;;;25.80;63.90;;;;;;2610001;54;20039;-76
2021/08/13 18:41:18;;;;;;;7.40;5.72;;;25.80;64.40;;;;;;2609607;54;20066;-76
2021/08/13 18:43:45;;;;;;;6.20;5.45;;;25.80;65.20;;;;;;2610316;54;20161;-76
2021/08/13 18:46:11;;;;;;;7.60;5.57;;;25.80;63.00;;;;;;2609905;54;20038;-76
2021/08/13 18:48:36;;;;;;;8.60;5.57;;;25.80;63.80;;;;;;2609552;54;20081;-75
2021/08/13 18:51:03;;;;;;;6.70;5.53;;;25.70;62.60;;;;;;2609093;50;20034;-76
2021/08/13 18:53:30;;;;;;;8.57;5.88;;;25.60;63.70;;;;;;2609984;54;20039;-76
2021/08/13 18:55:56;;;;;;;6.80;5.38;;;25.60;63.80;;;;;;2610794;54;20654;-75
2021/08/13 18:58:22;;;;;;;6.38;5.47;;;25.60;63.30;;;;;;2609663;47;20072;-76
2021/08/13 19:00:48;;;;;;;7.22;5.70;;;25.60;62.90;;;;;;2610742;54;20753;-76
2021/08/13 19:03:14;;;;;;;6.45;5.35;;;25.60;64.80;;;;;;2610515;54;20038;-76
2021/08/13 19:05:40;;;;;;;8.65;6.18;;;25.60;64.80;;;;;;2610726;54;20100;-76
2021/08/13 19:08:06;;;;;;;7.60;6.10;;;25.60;67.70;;;;;;2610014;54;20058;-76
2021/08/13 19:10:32;;;;;;;7.70;5.85;;;25.60;69.90;;;;;;2610525;54;20027;-76
2021/08/13 19:12:58;;;;;;;7.00;5.82;;;25.50;69.10;;;;;;2610545;54;20637;-76
2021/08/13 19:15:24;;;;;;;7.85;6.10;;;25.40;69.80;;;;;;2610571;54;20833;-75
2021/08/13 19:17:50;;;;;;;9.63;6.35;;;25.30;70.80;;;;;;2610713;54;20566;-76
2021/08/13 19:20:17;;;;;;;8.52;6.35;;;25.30;70.60;;;;;;2610660;54;20037;-75
2021/08/13 19:22:44;;;;;;;9.30;7.00;;;25.30;70.10;;;;;;2610950;54;20077;-76
2021/08/13 19:25:11;;;;;;;8.75;7.03;;;25.30;70.00;;;;;;2610077;47;20885;-76
2021/08/13 19:27:37;;;;;;;8.85;7.50;;;25.30;70.40;;;;;;2611277;54;20111;-75
2021/08/13 19:30:05;;;;;;;9.70;7.25;;;25.20;70.20;;;;;;2611190;54;21039;-76
2021/08/13 19:32:31;;;;;;;10.52;7.38;;;25.20;70.70;;;;;;2611204;54;20057;-74
2021/08/13 19:34:58;;;;;;;12.18;7.75;;;25.10;70.60;;;;;;2611492;54;20037;-74
2021/08/13 19:37:25;;;;;;;10.35;7.25;;;25.20;70.90;;;;;;2611380;54;20797;-75
2021/08/13 19:39:51;;;;;;;12.30;6.80;;;25.10;71.20;;;;;;2611568;54;20035;-74
2021/08/13 19:42:17;;;;;;;9.10;7.03;;;25.10;71.60;;;;;;2611172;54;20086;-74
2021/08/13 19:44:42;;;;;;;9.82;6.90;;;25.10;72.10;;;;;;2610432;54;20034;-74
2021/08/13 19:47:08;;;;;;;9.05;6.88;;;25.10;72.00;;;;;;2610437;54;20117;-74
2021/08/13 19:49:34;;;;;;;8.90;6.93;;;25.10;71.80;;;;;;2611544;39;20915;-74
2021/08/13 19:51:59;;;;;;;10.85;6.82;;;25.10;71.90;;;;;;2610776;54;20069;-74
2021/08/13 19:54:25;;;;;;;7.13;6.40;;;25.00;71.70;;;;;;2611264;39;20782;-74
2021/08/13 19:56:51;;;;;;;11.32;7.15;;;25.00;71.90;;;;;;2610926;54;20650;-76
2021/08/13 19:59:17;;;;;;;17.20;7.65;;;24.90;71.30;;;;;;2610839;54;20605;-76
2021/08/13 20:01:42;;;;;;;14.13;7.03;;;24.90;70.60;;;;;;2610777;54;20038;-77
2021/08/13 20:04:08;;;;;;;7.75;6.43;;;24.90;71.10;;;;;;2610201;54;20146;-75
2021/08/13 20:06:34;;;;;;;8.15;6.35;;;24.80;72.20;;;;;;2610724;54;20034;-77
2021/08/13 20:09:00;;;;;;;8.88;6.75;;;24.80;72.20;;;;;;2610151;54;20039;-77
2021/08/13 20:11:26;;;;;;;8.52;6.63;;;24.80;72.40;;;;;;2610314;54;20041;-77
2021/08/13 20:13:52;;;;;;;9.18;6.45;;;24.80;72.20;;;;;;2610220;54;20034;-77
2021/08/13 20:16:17;;;;;;;11.63;6.60;;;24.80;72.50;;;;;;2610234;54;20074;-71
2021/08/13 20:18:43;;;;;;;9.38;6.60;;;24.80;73.10;;;;;;2609953;54;20030;-77
2021/08/13 20:21:09;;;;;;;8.75;7.13;;;24.70;73.80;;;;;;2609813;54;20038;-77
2021/08/13 20:23:35;;;;;;;12.02;7.53;;;24.70;73.90;;;;;;2610027;54;20888;-76
2021/08/13 20:26:03;;;;;;;10.80;8.45;;;24.60;74.70;;;;;;2609778;54;20030;-77